sensor_id;sensor_type;location;lat;lon;timestamp;pressure;altitude;pressure_sealevel;temperature;humidity
50550;BME280;36505;52.512;13.460;2022-09-02T00:00:32;101712.38;;;14.41;63.86
50550;BME280;36505;52.512;13.460;2022-09-02T00:02:57;101710.72;;;14.40;63.66
50550;BME280;36505;52.512;13.460;2022-09-02T00:05:23;101708.66;;;14.36;63.78
50550;BME280;36505;52.512;13.460;2022-09-02T00:07:48;101709.75;;;14.35;63.63
50550;BME280;36505;52.512;13.460;2022-09-02T00:10:14;101708.66;;;14.36;63.83
50550;BME280;36505;52.512;13.460;2022-09-02T00:12:39;101704.63;;;14.38;63.72
50550;BME280;36505;52.512;13.460;2022-09-02T00:15:05;101709.31;;;14.38;63.85
50550;BME280;36505;52.512;13.460;2022-09-02T00:17:30;101707.84;;;14.35;63.72
50550;BME280;36505;52.512;13.460;2022-09-02T00:19:56;101700.31;;;14.31;64.11
50550;BME280;36505;52.512;13.460;2022-09-02T00:22:21;101702.22;;;14.30;64.05
50550;BME280;36505;52.512;13.460;2022-09-02T00:24:47;101707.97;;;14.29;64.19
50550;BME280;36505;52.512;13.460;2022-09-02T00:27:12;101700.22;;;14.26;64.30
50550;BME280;36505;52.512;13.460;2022-09-02T00:29:37;101700.47;;;14.24;64.50
50550;BME280;36505;52.512;13.460;2022-09-02T00:32:04;101703.22;;;14.24;64.16
50550;BME280;36505;52.512;13.460;2022-09-02T00:34:29;101702.63;;;14.22;64.45
50550;BME280;36505;52.512;13.460;2022-09-02T00:36:55;101705.38;;;14.22;64.49
50550;BME280;36505;52.512;13.460;2022-09-02T00:39:21;101705.97;;;14.24;64.33
50550;BME280;36505;52.512;13.460;2022-09-02T00:41:46;101697.09;;;14.22;64.19
50550;BME280;36505;52.512;13.460;2022-09-02T00:44:14;101691.13;;;14.25;64.12
50550;BME280;36505;52.512;13.460;2022-09-02T00:46:40;101690.63;;;14.28;64.18
50550;BME280;36505;52.512;13.460;2022-09-02T00:49:25;101696.47;;;14.32;64.02
50550;BME280;36505;52.512;13.460;2022-09-02T00:51:56;101695.72;;;14.36;63.92
50550;BME280;36505;52.512;13.460;2022-09-02T00:54:24;101692.28;;;14.29;63.91
50550;BME280;36505;52.512;13.460;2022-09-02T00:56:51;101689.69;;;14.22;64.17
50550;BME280;36505;52.512;13.460;2022-09-02T00:59:23;101692.19;;;14.24;64.21
50550;BME280;36505;52.512;13.460;2022-09-02T01:01:51;101688.16;;;14.15;64.31
50550;BME280;36505;52.512;13.460;2022-09-02T01:04:16;101683.16;;;14.12;64.42
50550;BME280;36505;52.512;13.460;2022-09-02T01:06:42;101692.38;;;14.06;64.29
50550;BME280;36505;52.512;13.460;2022-09-02T01:09:12;101681.72;;;14.09;64.36
50550;BME280;36505;52.512;13.460;2022-09-02T01:11:47;101685.06;;;14.11;64.24
50550;BME280;36505;52.512;13.460;2022-09-02T01:14:20;101676.28;;;14.14;64.46
50550;BME280;36505;52.512;13.460;2022-09-02T01:16:50;101678.22;;;14.14;64.14
50550;BME280;36505;52.512;13.460;2022-09-02T01:19:24;101678.59;;;14.06;64.31
50550;BME280;36505;52.512;13.460;2022-09-02T01:21:52;101677.09;;;13.98;64.50
50550;BME280;36505;52.512;13.460;2022-09-02T01:24:19;101681.16;;;13.96;64.68
50550;BME280;36505;52.512;13.460;2022-09-02T01:26:45;101679.25;;;13.96;64.73
50550;BME280;36505;52.512;13.460;2022-09-02T01:29:11;101682.75;;;13.92;64.91
50550;BME280;36505;52.512;13.460;2022-09-02T01:31:37;101685.22;;;13.93;65.05
50550;BME280;36505;52.512;13.460;2022-09-02T01:34:03;101681.63;;;13.93;65.03
50550;BME280;36505;52.512;13.460;2022-09-02T01:36:31;101678.88;;;13.93;64.92
50550;BME280;36505;52.512;13.460;2022-09-02T01:38:57;101674.81;;;13.95;64.94
50550;BME280;36505;52.512;13.460;2022-09-02T01:41:22;101674.81;;;13.95;64.97
50550;BME280;36505;52.512;13.460;2022-09-02T01:43:48;101673.63;;;13.91;65.24
50550;BME280;36505;52.512;13.460;2022-09-02T01:46:13;101677.09;;;13.87;65.51
50550;BME280;36505;52.512;13.460;2022-09-02T01:48:38;101676.78;;;13.83;65.31
50550;BME280;36505;52.512;13.460;2022-09-02T01:51:04;101679.53;;;13.83;65.70
50550;BME280;36505;52.512;13.460;2022-09-02T01:53:31;101672.56;;;13.80;65.42
50550;BME280;36505;52.512;13.460;2022-09-02T01:55:56;101680.59;;;13.82;65.63
50550;BME280;36505;52.512;13.460;2022-09-02T01:58:22;101675.44;;;13.85;65.64
50550;BME280;36505;52.512;13.460;2022-09-02T02:00:47;101674.84;;;13.83;65.50
50550;BME280;36505;52.512;13.460;2022-09-02T02:03:13;101670.06;;;13.79;65.78
50550;BME280;36505;52.512;13.460;2022-09-02T02:05:39;101667.22;;;13.74;65.85
50550;BME280;36505;52.512;13.460;2022-09-02T02:08:06;101671.31;;;13.71;66.04
50550;BME280;36505;52.512;13.460;2022-09-02T02:10:32;101664.81;;;13.66;66.32
50550;BME280;36505;52.512;13.460;2022-09-02T02:12:59;101665.56;;;13.61;66.75
50550;BME280;36505;52.512;13.460;2022-09-02T02:15:25;101657.31;;;13.61;66.49
50550;BME280;36505;52.512;13.460;2022-09-02T02:17:51;101660.91;;;13.62;66.78
50550;BME280;36505;52.512;13.460;2022-09-02T02:20:17;101656.69;;;13.59;66.61
50550;BME280;36505;52.512;13.460;2022-09-02T02:22:43;101661.97;;;13.61;66.67
50550;BME280;36505;52.512;13.460;2022-09-02T02:25:10;101660.91;;;13.62;66.67
50550;BME280;36505;52.512;13.460;2022-09-02T02:27:36;101663.16;;;13.65;66.64
50550;BME280;36505;52.512;13.460;2022-09-02T02:30:05;101642.09;;;13.59;66.71
50550;BME280;36505;52.512;13.460;2022-09-02T02:32:30;101667.34;;;13.67;66.57
50550;BME280;36505;52.512;13.460;2022-09-02T02:34:56;101664.00;;;13.65;66.66
50550;BME280;36505;52.512;13.460;2022-09-02T02:37:22;101657.31;;;13.61;67.06
50550;BME280;36505;52.512;13.460;2022-09-02T02:39:47;101655.63;;;13.60;66.96
50550;BME280;36505;52.512;13.460;2022-09-02T02:42:13;101653.94;;;13.59;66.99
50550;BME280;36505;52.512;13.460;2022-09-02T02:44:39;101664.84;;;13.54;67.22
50550;BME280;36505;52.512;13.460;2022-09-02T02:47:06;101653.50;;;13.51;67.30
50550;BME280;36505;52.512;13.460;2022-09-02T02:49:35;101659.25;;;13.49;67.25
50550;BME280;36505;52.512;13.460;2022-09-02T02:52:01;101662.34;;;13.53;67.51
50550;BME280;36505;52.512;13.460;2022-09-02T02:54:26;101652.78;;;13.55;67.20
50550;BME280;36505;52.512;13.460;2022-09-02T02:56:52;101658.28;;;13.55;67.33
50550;BME280;36505;52.512;13.460;2022-09-02T02:59:17;101653.25;;;13.52;67.72
50550;BME280;36505;52.512;13.460;2022-09-02T03:01:42;101658.75;;;13.52;67.52
50550;BME280;36505;52.512;13.460;2022-09-02T03:04:08;101654.81;;;13.48;67.75
50550;BME280;36505;52.512;13.460;2022-09-02T03:06:33;101659.38;;;13.42;67.89
50550;BME280;36505;52.512;13.460;2022-09-02T03:08:59;101657.69;;;13.41;68.11
50550;BME280;36505;52.512;13.460;2022-09-02T03:11:26;101658.78;;;13.40;68.11
50550;BME280;36505;52.512;13.460;2022-09-02T03:13:53;101657.31;;;13.38;68.20
50550;BME280;36505;52.512;13.460;2022-09-02T03:16:19;101658.28;;;13.32;68.34
50550;BME280;36505;52.512;13.460;2022-09-02T03:18:46;101655.81;;;13.30;68.33
50550;BME280;36505;52.512;13.460;2022-09-02T03:21:12;101664.28;;;13.29;68.46
50550;BME280;36505;52.512;13.460;2022-09-02T03:23:38;101653.53;;;13.27;68.66
50550;BME280;36505;52.512;13.460;2022-09-02T03:26:19;101660.94;;;13.27;68.76
50550;BME280;36505;52.512;13.460;2022-09-02T03:28:45;101651.25;;;13.24;68.71
50550;BME280;36505;52.512;13.460;2022-09-02T03:31:20;101649.81;;;13.22;68.91
50550;BME280;36505;52.512;13.460;2022-09-02T03:33:46;101649.81;;;13.22;68.96
50550;BME280;36505;52.512;13.460;2022-09-02T03:38:48;101650.28;;;13.19;69.17
50550;BME280;36505;52.512;13.460;2022-09-02T03:41:14;101643.50;;;13.21;69.07
50550;BME280;36505;52.512;13.460;2022-09-02T03:43:39;101643.72;;;13.20;69.06
50550;BME280;36505;52.512;13.460;2022-09-02T03:46:04;101646.97;;;13.17;69.51
50550;BME280;36505;52.512;13.460;2022-09-02T03:48:30;101646.97;;;13.17;69.53
50550;BME280;36505;52.512;13.460;2022-09-02T03:50:55;101639.19;;;13.14;69.59
50550;BME280;36505;52.512;13.460;2022-09-02T03:53:21;101641.09;;;13.13;69.76
50550;BME280;36505;52.512;13.460;2022-09-02T03:55:46;101634.00;;;13.05;69.79
50550;BME280;36505;52.512;13.460;2022-09-02T03:58:12;101644.16;;;13.05;69.93
50550;BME280;36505;52.512;13.460;2022-09-02T04:00:39;101637.09;;;12.97;70.40
50550;BME280;36505;52.512;13.460;2022-09-02T04:03:05;101641.03;;;12.90;70.79
50550;BME280;36505;52.512;13.460;2022-09-02T04:05:32;101648.09;;;12.86;70.92
50550;BME280;36505;52.512;13.460;2022-09-02T04:07:57;101637.44;;;12.78;70.99
50550;BME280;36505;52.512;13.460;2022-09-02T04:10:23;101642.38;;;12.76;71.04
50550;BME280;36505;52.512;13.460;2022-09-02T04:12:49;101640.19;;;12.78;71.57
50550;BME280;36505;52.512;13.460;2022-09-02T04:15:15;101645.94;;;12.76;71.27
50550;BME280;36505;52.512;13.460;2022-09-02T04:17:41;101642.72;;;12.79;71.26
50550;BME280;36505;52.512;13.460;2022-09-02T04:20:10;101639.97;;;12.79;71.35
50550;BME280;36505;52.512;13.460;2022-09-02T04:22:36;101650.72;;;12.81;71.09
50550;BME280;36505;52.512;13.460;2022-09-02T04:25:03;101651.09;;;12.84;70.96
50550;BME280;36505;52.512;13.460;2022-09-02T04:27:29;101649.78;;;12.87;71.22
50550;BME280;36505;52.512;13.460;2022-09-02T04:29:54;101651.81;;;12.91;70.80
50550;BME280;36505;52.512;13.460;2022-09-02T04:32:20;101648.59;;;12.94;70.84
50550;BME280;36505;52.512;13.460;2022-09-02T04:34:47;101652.41;;;12.93;70.75
50550;BME280;36505;52.512;13.460;2022-09-02T04:37:12;101661.50;;;12.94;70.76
50550;BME280;36505;52.512;13.460;2022-09-02T04:39:38;101649.66;;;12.93;70.21
50550;BME280;36505;52.512;13.460;2022-09-02T04:42:03;101653.25;;;12.94;70.44
50550;BME280;36505;52.512;13.460;2022-09-02T04:44:29;101657.06;;;12.93;70.35
50550;BME280;36505;52.512;13.460;2022-09-02T04:46:54;101658.16;;;12.92;70.62
50550;BME280;36505;52.512;13.460;2022-09-02T04:49:20;101655.41;;;12.92;70.54
50550;BME280;36505;52.512;13.460;2022-09-02T04:51:45;101646.66;;;12.83;70.70
50550;BME280;36505;52.512;13.460;2022-09-02T04:54:11;101646.06;;;12.81;71.09
50550;BME280;36505;52.512;13.460;2022-09-02T04:56:36;101648.59;;;12.83;71.00
50550;BME280;36505;52.512;13.460;2022-09-02T04:59:03;101656.34;;;12.86;71.12
50550;BME280;36505;52.512;13.460;2022-09-02T05:01:32;101658.16;;;12.92;71.08
50550;BME280;36505;52.512;13.460;2022-09-02T05:03:58;101663.19;;;12.95;70.81
50550;BME280;36505;52.512;13.460;2022-09-02T05:06:27;101664.13;;;13.00;70.68
50550;BME280;36505;52.512;13.460;2022-09-02T05:08:53;101669.13;;;13.03;70.35
50550;BME280;36505;52.512;13.460;2022-09-02T05:11:22;101670.59;;;13.06;70.26
50550;BME280;36505;52.512;13.460;2022-09-02T05:13:49;101664.84;;;13.07;70.20
50550;BME280;36505;52.512;13.460;2022-09-02T05:16:20;101660.44;;;13.06;70.53
50550;BME280;36505;52.512;13.460;2022-09-02T05:18:48;101666.53;;;13.09;70.24
50550;BME280;36505;52.512;13.460;2022-09-02T05:21:14;101665.84;;;13.13;70.19
50550;BME280;36505;52.512;13.460;2022-09-02T05:23:40;101664.63;;;13.09;70.76
50550;BME280;36505;52.512;13.460;2022-09-02T05:26:06;101671.13;;;13.15;70.43
50550;BME280;36505;52.512;13.460;2022-09-02T05:28:33;101669.53;;;13.19;70.12
50550;BME280;36505;52.512;13.460;2022-09-02T05:31:07;101674.81;;;13.20;69.87
50550;BME280;36505;52.512;13.460;2022-09-02T05:33:35;101671.72;;;13.17;70.08
50550;BME280;36505;52.512;13.460;2022-09-02T05:36:03;101674.09;;;13.13;70.23
50550;BME280;36505;52.512;13.460;2022-09-02T05:38:29;101666.88;;;13.12;70.06
50550;BME280;36505;52.512;13.460;2022-09-02T05:40:56;101673.44;;;13.11;70.29
50550;BME280;36505;52.512;13.460;2022-09-02T05:43:21;101666.88;;;13.12;70.41
50550;BME280;36505;52.512;13.460;2022-09-02T05:45:47;101667.75;;;13.13;70.33
50550;BME280;36505;52.512;13.460;2022-09-02T05:48:13;101662.72;;;13.10;70.39
50550;BME280;36505;52.512;13.460;2022-09-02T05:50:56;101660.72;;;13.17;70.41
50550;BME280;36505;52.512;13.460;2022-09-02T05:53:22;101663.47;;;13.28;70.04
50550;BME280;36505;52.512;13.460;2022-09-02T05:55:48;101667.03;;;13.40;69.68
50550;BME280;36505;52.512;13.460;2022-09-02T05:58:14;101665.59;;;13.50;69.46
50550;BME280;36505;52.512;13.460;2022-09-02T06:00:40;101662.34;;;13.53;69.15
50550;BME280;36505;52.512;13.460;2022-09-02T06:03:05;101660.78;;;13.57;68.99
50550;BME280;36505;52.512;13.460;2022-09-02T06:05:30;101673.34;;;13.64;68.86
50550;BME280;36505;52.512;13.460;2022-09-02T06:07:56;101672.59;;;13.69;69.04
50550;BME280;36505;52.512;13.460;2022-09-02T06:10:21;101682.03;;;13.73;69.05
50550;BME280;36505;52.512;13.460;2022-09-02T06:12:47;101677.00;;;13.81;68.58
50550;BME280;36505;52.512;13.460;2022-09-02T06:15:12;101674.94;;;13.89;68.33
50550;BME280;36505;52.512;13.460;2022-09-02T06:17:39;101679.00;;;13.98;68.30
50550;BME280;36505;52.512;13.460;2022-09-02T06:20:05;101672.53;;;14.04;67.87
50550;BME280;36505;52.512;13.460;2022-09-02T06:22:30;101678.72;;;14.11;67.37
50550;BME280;36505;52.512;13.460;2022-09-02T06:24:56;101673.31;;;14.16;67.23
50550;BME280;36505;52.512;13.460;2022-09-02T06:27:22;101675.16;;;14.27;67.12
50550;BME280;36505;52.512;13.460;2022-09-02T06:29:47;101670.34;;;14.46;66.63
50550;BME280;36505;52.512;13.460;2022-09-02T06:32:12;101672.50;;;14.60;65.92
50550;BME280;36505;52.512;13.460;2022-09-02T06:34:38;101665.78;;;15.57;63.95
50550;BME280;36505;52.512;13.460;2022-09-02T06:37:03;101665.34;;;15.87;62.17
50550;BME280;36505;52.512;13.460;2022-09-02T06:39:29;101662.13;;;17.02;59.61
50550;BME280;36505;52.512;13.460;2022-09-02T06:41:54;101661.22;;;17.75;56.33
50550;BME280;36505;52.512;13.460;2022-09-02T06:44:20;101662.25;;;19.58;51.24
50550;BME280;36505;52.512;13.460;2022-09-02T06:46:52;101657.22;;;19.76;49.59
50550;BME280;36505;52.512;13.460;2022-09-02T06:49:18;101667.34;;;20.10;49.57
50550;BME280;36505;52.512;13.460;2022-09-02T06:51:45;101668.66;;;21.88;45.70
50550;BME280;36505;52.512;13.460;2022-09-02T06:54:14;101648.59;;;22.47;42.85
50550;BME280;36505;52.512;13.460;2022-09-02T06:56:42;101656.53;;;22.77;42.99
50550;BME280;36505;52.512;13.460;2022-09-02T06:59:08;101658.38;;;23.47;41.95
50550;BME280;36505;52.512;13.460;2022-09-02T07:01:33;101661.56;;;23.40;41.62
50550;BME280;36505;52.512;13.460;2022-09-02T07:03:59;101644.47;;;24.24;39.75
50550;BME280;36505;52.512;13.460;2022-09-02T07:06:47;101661.47;;;24.41;38.35
50550;BME280;36505;52.512;13.460;2022-09-02T07:09:15;101658.88;;;24.89;37.94
50550;BME280;36505;52.512;13.460;2022-09-02T07:11:41;101651.91;;;25.00;37.54
50550;BME280;36505;52.512;13.460;2022-09-02T07:14:06;101652.50;;;25.19;37.30
50550;BME280;36505;52.512;13.460;2022-09-02T07:16:36;101656.19;;;25.60;36.48
50550;BME280;36505;52.512;13.460;2022-09-02T07:19:02;101654.94;;;25.66;36.85
50550;BME280;36505;52.512;13.460;2022-09-02T07:21:29;101651.00;;;26.41;35.74
50550;BME280;36505;52.512;13.460;2022-09-02T07:23:57;101656.78;;;26.96;33.95
50550;BME280;36505;52.512;13.460;2022-09-02T07:26:23;101658.81;;;27.42;34.24
50550;BME280;36505;52.512;13.460;2022-09-02T07:28:49;101658.78;;;27.59;32.84
50550;BME280;36505;52.512;13.460;2022-09-02T07:31:15;101651.25;;;27.34;32.88
50550;BME280;36505;52.512;13.460;2022-09-02T07:33:42;101661.88;;;27.11;33.44
50550;BME280;36505;52.512;13.460;2022-09-02T07:36:10;101660.59;;;26.91;33.81
50550;BME280;36505;52.512;13.460;2022-09-02T07:38:36;101657.22;;;27.24;34.09
50550;BME280;36505;52.512;13.460;2022-09-02T07:41:02;101655.34;;;27.54;33.23
50550;BME280;36505;52.512;13.460;2022-09-02T07:43:30;101657.41;;;28.03;33.02
50550;BME280;36505;52.512;13.460;2022-09-02T07:45:56;101651.56;;;28.38;31.96
50550;BME280;36505;52.512;13.460;2022-09-02T07:48:23;101650.47;;;28.72;31.75
50550;BME280;36505;52.512;13.460;2022-09-02T07:50:49;101651.66;;;29.03;30.63
50550;BME280;36505;52.512;13.460;2022-09-02T07:53:14;101660.91;;;29.25;29.76
50550;BME280;36505;52.512;13.460;2022-09-02T07:55:41;101659.44;;;29.39;29.96
50550;BME280;36505;52.512;13.460;2022-09-02T07:58:08;101657.97;;;29.33;30.55
50550;BME280;36505;52.512;13.460;2022-09-02T08:00:34;101651.13;;;29.79;28.92
50550;BME280;36505;52.512;13.460;2022-09-02T08:03:00;101653.53;;;30.54;28.14
50550;BME280;36505;52.512;13.460;2022-09-02T08:05:27;101654.34;;;30.54;27.89
50550;BME280;36505;52.512;13.460;2022-09-02T08:07:52;101650.88;;;30.73;28.10
50550;BME280;36505;52.512;13.460;2022-09-02T08:10:18;101654.81;;;29.35;29.44
50550;BME280;36505;52.512;13.460;2022-09-02T08:12:45;101656.78;;;28.68;31.31
50550;BME280;36505;52.512;13.460;2022-09-02T08:15:11;101659.25;;;28.28;31.31
50550;BME280;36505;52.512;13.460;2022-09-02T08:17:37;101659.94;;;29.54;29.67
50550;BME280;36505;52.512;13.460;2022-09-02T08:20:07;101655.22;;;29.13;29.60
50550;BME280;36505;52.512;13.460;2022-09-02T08:22:33;101655.22;;;29.13;29.82
50550;BME280;36505;52.512;13.460;2022-09-02T08:25:00;101654.88;;;29.71;30.09
50550;BME280;36505;52.512;13.460;2022-09-02T08:27:25;101653.81;;;30.24;28.80
50550;BME280;36505;52.512;13.460;2022-09-02T08:29:51;101656.78;;;30.16;27.94
50550;BME280;36505;52.512;13.460;2022-09-02T08:32:17;101648.66;;;30.14;28.21
50550;BME280;36505;52.512;13.460;2022-09-02T08:34:42;101663.09;;;29.52;29.24
50550;BME280;36505;52.512;13.460;2022-09-02T08:37:08;101653.13;;;29.79;28.33
50550;BME280;36505;52.512;13.460;2022-09-02T08:39:33;101646.56;;;29.99;28.43
50550;BME280;36505;52.512;13.460;2022-09-02T08:42:11;101643.06;;;30.42;28.05
50550;BME280;36505;52.512;13.460;2022-09-02T08:44:39;101650.72;;;30.82;27.86
50550;BME280;36505;52.512;13.460;2022-09-02T08:47:10;101649.06;;;31.52;26.78
50550;BME280;36505;52.512;13.460;2022-09-02T08:49:41;101648.78;;;30.58;27.66
50550;BME280;36505;52.512;13.460;2022-09-02T08:52:14;101650.06;;;29.96;28.51
50550;BME280;36505;52.512;13.460;2022-09-02T08:57:07;101640.06;;;29.99;28.72
50550;BME280;36505;52.512;13.460;2022-09-02T08:59:34;101646.00;;;30.46;27.80
50550;BME280;36505;52.512;13.460;2022-09-02T09:04:57;101640.63;;;30.16;27.38
50550;BME280;36505;52.512;13.460;2022-09-02T09:13:23;101634.09;;;30.00;27.03
50550;BME280;36505;52.512;13.460;2022-09-02T09:16:01;101629.31;;;30.16;27.06
50550;BME280;36505;52.512;13.460;2022-09-02T09:18:44;101616.38;;;30.28;26.66
50550;BME280;36505;52.512;13.460;2022-09-02T09:21:12;101621.97;;;30.00;27.08
50550;BME280;36505;52.512;13.460;2022-09-02T09:23:39;101622.41;;;29.53;27.20
50550;BME280;36505;52.512;13.460;2022-09-02T09:26:10;101624.53;;;29.56;26.29
50550;BME280;36505;52.512;13.460;2022-09-02T09:28:41;101623.69;;;29.56;26.47
50550;BME280;36505;52.512;13.460;2022-09-02T09:31:13;101624.13;;;29.33;26.39
50550;BME280;36505;52.512;13.460;2022-09-02T09:33:57;101618.41;;;28.97;27.14
50550;BME280;36505;52.512;13.460;2022-09-02T09:36:47;101618.44;;;28.55;27.58
50550;BME280;36505;52.512;13.460;2022-09-02T09:39:27;101618.41;;;27.84;27.98
50550;BME280;36505;52.512;13.460;2022-09-02T09:41:57;101616.44;;;26.92;29.91
50550;BME280;36505;52.512;13.460;2022-09-02T09:47:02;101611.34;;;26.59;31.13
50550;BME280;36505;52.512;13.460;2022-09-02T09:49:31;101606.34;;;26.99;30.64
50550;BME280;36505;52.512;13.460;2022-09-02T09:51:56;101612.31;;;26.81;29.70
50550;BME280;36505;52.512;13.460;2022-09-02T09:54:24;101613.28;;;26.76;30.30
50550;BME280;36505;52.512;13.460;2022-09-02T09:56:50;101605.22;;;26.66;30.38
50550;BME280;36505;52.512;13.460;2022-09-02T09:59:40;101587.53;;;26.91;29.74
50550;BME280;36505;52.512;13.460;2022-09-02T10:02:26;101608.22;;;26.61;30.05
50550;BME280;36505;52.512;13.460;2022-09-02T10:04:53;101607.72;;;26.24;31.50
50550;BME280;36505;52.512;13.460;2022-09-02T10:07:35;101610.69;;;25.63;31.16
50550;BME280;36505;52.512;13.460;2022-09-02T10:12:35;101609.59;;;24.44;33.55
50550;BME280;36505;52.512;13.460;2022-09-02T10:15:01;101597.59;;;24.29;34.08
50550;BME280;36505;52.512;13.460;2022-09-02T10:22:38;101592.50;;;23.82;34.97
50550;BME280;36505;52.512;13.460;2022-09-02T10:25:28;101597.47;;;23.30;34.88
50550;BME280;36505;52.512;13.460;2022-09-02T10:30:30;101592.09;;;22.55;36.31
50550;BME280;36505;52.512;13.460;2022-09-02T10:36:12;101595.00;;;21.46;38.94
50550;BME280;36505;52.512;13.460;2022-09-02T10:38:46;101584.50;;;21.38;40.02
50550;BME280;36505;52.512;13.460;2022-09-02T10:41:15;101588.25;;;21.52;39.99
50550;BME280;36505;52.512;13.460;2022-09-02T10:57:37;101580.59;;;21.39;39.86
50550;BME280;36505;52.512;13.460;2022-09-02T11:00:15;101567.72;;;21.43;38.08
50550;BME280;36505;52.512;13.460;2022-09-02T11:02:44;101574.63;;;21.27;37.19
50550;BME280;36505;52.512;13.460;2022-09-02T11:05:31;101572.19;;;21.15;37.90
50550;BME280;36505;52.512;13.460;2022-09-02T11:08:09;101573.19;;;21.01;37.54
50550;BME280;36505;52.512;13.460;2022-09-02T11:10:40;101580.03;;;20.84;36.82
50550;BME280;36505;52.512;13.460;2022-09-02T11:24:05;101559.09;;;20.92;40.42
50550;BME280;36505;52.512;13.460;2022-09-02T11:27:02;101561.88;;;21.21;39.68
50550;BME280;36505;52.512;13.460;2022-09-02T11:32:36;101557.97;;;21.22;39.80
50550;BME280;36505;52.512;13.460;2022-09-02T11:35:07;101556.78;;;20.99;38.99
50550;BME280;36505;52.512;13.460;2022-09-02T11:37:51;101552.63;;;20.97;39.38
50550;BME280;36505;52.512;13.460;2022-09-02T11:41:02;101550.13;;;20.95;39.42
50550;BME280;36505;52.512;13.460;2022-09-02T11:43:44;101563.59;;;21.12;38.99
50550;BME280;36505;52.512;13.460;2022-09-02T11:46:15;101554.22;;;21.32;36.48
50550;BME280;36505;52.512;13.460;2022-09-02T11:54:03;101549.69;;;20.83;36.00
50550;BME280;36505;52.512;13.460;2022-09-02T11:56:36;101551.47;;;20.74;37.42
50550;BME280;36505;52.512;13.460;2022-09-02T11:59:04;101545.09;;;20.68;37.49
50550;BME280;36505;52.512;13.460;2022-09-02T12:01:37;101550.16;;;20.66;37.65
50550;BME280;36505;52.512;13.460;2022-09-02T12:04:17;101543.75;;;20.66;37.60
50550;BME280;36505;52.512;13.460;2022-09-02T12:17:38;101525.19;;;20.56;37.63
50550;BME280;36505;52.512;13.460;2022-09-02T12:20:06;101514.59;;;20.58;36.63
50550;BME280;36505;52.512;13.460;2022-09-02T12:22:37;101506.31;;;20.53;37.69
50550;BME280;36505;52.512;13.460;2022-09-02T12:27:48;101505.09;;;20.64;36.76
50550;BME280;36505;52.512;13.460;2022-09-02T12:33:29;101495.69;;;20.60;37.83
50550;BME280;36505;52.512;13.460;2022-09-02T12:35:55;101510.44;;;20.61;38.05
50550;BME280;36505;52.512;13.460;2022-09-02T12:38:37;101488.53;;;20.49;39.01
50550;BME280;36505;52.512;13.460;2022-09-02T12:43:36;101493.25;;;20.54;38.61
50550;BME280;36505;52.512;13.460;2022-09-02T12:48:54;101490.59;;;20.38;38.22
50550;BME280;36505;52.512;13.460;2022-09-02T12:51:55;101489.75;;;20.38;38.04
50550;BME280;36505;52.512;13.460;2022-09-02T12:54:45;101492.00;;;20.36;39.19
50550;BME280;36505;52.512;13.460;2022-09-02T12:57:14;101480.19;;;20.49;38.38
50550;BME280;36505;52.512;13.460;2022-09-02T12:59:43;101486.28;;;20.51;38.22
50550;BME280;36505;52.512;13.460;2022-09-02T13:16:10;101469.69;;;20.41;37.50
50550;BME280;36505;52.512;13.460;2022-09-02T13:19:03;101470.97;;;20.54;38.25
50550;BME280;36505;52.512;13.460;2022-09-02T13:21:47;101462.34;;;20.79;37.85
50550;BME280;36505;52.512;13.460;2022-09-02T13:24:24;101463.66;;;20.86;36.83
50550;BME280;36505;52.512;13.460;2022-09-02T13:27:10;101472.25;;;20.90;37.20
50550;BME280;36505;52.512;13.460;2022-09-02T13:30:09;101461.47;;;20.83;37.45
50550;BME280;36505;52.512;13.460;2022-09-02T13:32:38;101463.13;;;20.84;38.12
50550;BME280;36505;52.512;13.460;2022-09-02T13:35:15;101472.75;;;20.68;37.45
50550;BME280;36505;52.512;13.460;2022-09-02T13:37:42;101466.75;;;20.56;37.26
50550;BME280;36505;52.512;13.460;2022-09-02T13:40:33;101468.22;;;20.48;37.46
50550;BME280;36505;52.512;13.460;2022-09-02T13:43:04;101464.44;;;20.39;37.21
50550;BME280;36505;52.512;13.460;2022-09-02T13:45:40;101446.94;;;20.34;37.05
50550;BME280;36505;52.512;13.460;2022-09-02T13:48:13;101452.91;;;20.51;37.26
50550;BME280;36505;52.512;13.460;2022-09-02T13:50:47;101446.22;;;20.52;37.13
50550;BME280;36505;52.512;13.460;2022-09-02T13:53:36;101446.41;;;20.61;37.47
50550;BME280;36505;52.512;13.460;2022-09-02T13:56:05;101443.94;;;20.59;37.63
50550;BME280;36505;52.512;13.460;2022-09-02T14:01:16;101442.13;;;20.68;37.92
50550;BME280;36505;52.512;13.460;2022-09-02T14:04:02;101436.47;;;20.78;37.79
50550;BME280;36505;52.512;13.460;2022-09-02T14:06:33;101426.34;;;20.87;37.53
50550;BME280;36505;52.512;13.460;2022-09-02T14:09:05;101428.59;;;20.85;37.29
50550;BME280;36505;52.512;13.460;2022-09-02T14:11:41;101428.53;;;20.90;37.29
50550;BME280;36505;52.512;13.460;2022-09-02T14:14:13;101423.13;;;20.99;37.15
50550;BME280;36505;52.512;13.460;2022-09-02T14:16:39;101420.56;;;21.03;37.30
50550;BME280;36505;52.512;13.460;2022-09-02T14:19:25;101413.81;;;21.09;36.65
50550;BME280;36505;52.512;13.460;2022-09-02T14:21:55;101424.25;;;20.98;36.68
50550;BME280;36505;52.512;13.460;2022-09-02T14:24:25;101421.69;;;21.02;37.17
50550;BME280;36505;52.512;13.460;2022-09-02T14:26:56;101420.53;;;21.08;37.27
50550;BME280;36505;52.512;13.460;2022-09-02T14:29:23;101406.00;;;21.11;36.83
50550;BME280;36505;52.512;13.460;2022-09-02T14:32:05;101411.94;;;21.04;37.12